sensor_id;sensor_type;location;lat;lon;timestamp;P1;durP1;ratioP1;P2;durP2;ratioP2
22284;SDS011;11311;52.192;20.900;2023-04-25T14:52:26;8.63;;;6.53;;
22284;SDS011;11311;52.192;20.900;2023-04-25T14:54:55;6.43;;;5.93;;
22284;SDS011;11311;52.192;20.900;2023-04-25T14:57:24;6.65;;;6.15;;
22284;SDS011;11311;52.192;20.900;2023-04-25T14:59:54;7.72;;;6.82;;
22284;SDS011;11311;52.192;20.900;2023-04-25T15:02:23;8.10;;;7.28;;
22284;SDS011;11311;52.192;20.900;2023-04-25T15:04:53;8.60;;;7.38;;
22284;SDS011;11311;52.192;20.900;2023-04-25T15:07:23;8.43;;;7.63;;
22284;SDS011;11311;52.192;20.900;2023-04-25T15:09:54;7.43;;;6.83;;
22284;SDS011;11311;52.192;20.900;2023-04-25T15:12:24;8.40;;;7.57;;
22284;SDS011;11311;52.192;20.900;2023-04-25T15:14:55;10.18;;;7.00;;
22284;SDS011;11311;52.192;20.900;2023-04-25T15:17:24;8.23;;;7.32;;
22284;SDS011;11311;52.192;20.900;2023-04-25T15:19:53;11.02;;;8.30;;
22284;SDS011;11311;52.192;20.900;2023-04-25T15:22:22;9.50;;;8.50;;
22284;SDS011;11311;52.192;20.900;2023-04-25T15:24:52;11.03;;;7.07;;
22284;SDS011;11311;52.192;20.900;2023-04-25T15:27:23;8.02;;;6.82;;
22284;SDS011;11311;52.192;20.900;2023-04-25T15:29:54;9.48;;;7.38;;
22284;SDS011;11311;52.192;20.900;2023-04-25T15:32:23;8.43;;;6.75;;
22284;SDS011;11311;52.192;20.900;2023-04-25T15:34:52;7.30;;;6.60;;
22284;SDS011;11311;52.192;20.900;2023-04-25T15:37:21;10.35;;;7.45;;
22284;SDS011;11311;52.192;20.900;2023-04-25T15:39:51;8.68;;;7.38;;
22284;SDS011;11311;52.192;20.900;2023-04-25T15:42:33;7.25;;;6.60;;
22284;SDS011;11311;52.192;20.900;2023-04-25T15:45:03;11.20;;;6.70;;
22284;SDS011;11311;52.192;20.900;2023-04-25T15:47:33;8.63;;;7.18;;
22284;SDS011;11311;52.192;20.900;2023-04-25T15:50:03;8.30;;;7.53;;
22284;SDS011;11311;52.192;20.900;2023-04-25T15:52:34;10.20;;;7.88;;
22284;SDS011;11311;52.192;20.900;2023-04-25T15:55:06;9.43;;;7.43;;
22284;SDS011;11311;52.192;20.900;2023-04-25T15:57:35;11.60;;;8.52;;
22284;SDS011;11311;52.192;20.900;2023-04-25T16:00:05;9.20;;;8.30;;
22284;SDS011;11311;52.192;20.900;2023-04-25T16:02:40;9.07;;;8.25;;
22284;SDS011;11311;52.192;20.900;2023-04-25T16:05:10;10.02;;;9.00;;
22284;SDS011;11311;52.192;20.900;2023-04-25T16:07:41;11.45;;;9.10;;
22284;SDS011;11311;52.192;20.900;2023-04-25T16:10:12;9.25;;;7.80;;
22284;SDS011;11311;52.192;20.900;2023-04-25T16:12:43;9.25;;;8.35;;
22284;SDS011;11311;52.192;20.900;2023-04-25T16:15:14;8.70;;;7.57;;
22284;SDS011;11311;52.192;20.900;2023-04-25T16:17:43;8.35;;;7.55;;
22284;SDS011;11311;52.192;20.900;2023-04-25T16:20:12;8.93;;;7.60;;
22284;SDS011;11311;52.192;20.900;2023-04-25T16:22:41;9.18;;;8.27;;
22284;SDS011;11311;52.192;20.900;2023-04-25T16:25:12;10.20;;;8.00;;
22284;SDS011;11311;52.192;20.900;2023-04-25T16:27:41;10.07;;;8.10;;
22284;SDS011;11311;52.192;20.900;2023-04-25T16:30:10;12.20;;;9.32;;
22284;SDS011;11311;52.192;20.900;2023-04-25T16:32:40;12.50;;;8.40;;
22284;SDS011;11311;52.192;20.900;2023-04-25T16:35:11;9.98;;;8.98;;
22284;SDS011;11311;52.192;20.900;2023-04-25T16:37:41;8.73;;;7.93;;
22284;SDS011;11311;52.192;20.900;2023-04-25T16:40:12;8.87;;;8.07;;
22284;SDS011;11311;52.192;20.900;2023-04-25T16:42:41;10.15;;;8.50;;
22284;SDS011;11311;52.192;20.900;2023-04-25T16:45:11;9.77;;;8.73;;
22284;SDS011;11311;52.192;20.900;2023-04-25T16:47:40;10.23;;;9.23;;
22284;SDS011;11311;52.192;20.900;2023-04-25T16:50:10;11.15;;;8.80;;
22284;SDS011;11311;52.192;20.900;2023-04-25T16:52:40;9.20;;;8.27;;
22284;SDS011;11311;52.192;20.900;2023-04-25T16:55:13;11.50;;;8.73;;
22284;SDS011;11311;52.192;20.900;2023-04-25T16:57:42;9.45;;;8.23;;
22284;SDS011;11311;52.192;20.900;2023-04-25T17:00:11;8.90;;;8.10;;
22284;SDS011;11311;52.192;20.900;2023-04-25T17:02:41;8.48;;;7.68;;
22284;SDS011;11311;52.192;20.900;2023-04-25T17:05:11;9.20;;;7.90;;
22284;SDS011;11311;52.192;20.900;2023-04-25T17:07:39;11.95;;;8.13;;
22284;SDS011;11311;52.192;20.900;2023-04-25T17:10:09;12.07;;;8.27;;
22284;SDS011;11311;52.192;20.900;2023-04-25T17:15:09;9.00;;;8.10;;
22284;SDS011;11311;52.192;20.900;2023-04-25T17:17:39;9.05;;;7.97;;
22284;SDS011;11311;52.192;20.900;2023-04-25T17:20:08;9.10;;;7.93;;
22284;SDS011;11311;52.192;20.900;2023-04-25T17:22:37;15.35;;;8.93;;
22284;SDS011;11311;52.192;20.900;2023-04-25T17:25:06;12.15;;;8.65;;
22284;SDS011;11311;52.192;20.900;2023-04-25T17:27:37;8.52;;;7.57;;
22284;SDS011;11311;52.192;20.900;2023-04-25T17:30:08;9.63;;;8.60;;
22284;SDS011;11311;52.192;20.900;2023-04-25T17:32:38;8.13;;;7.32;;
22284;SDS011;11311;52.192;20.900;2023-04-25T17:35:08;10.75;;;7.53;;
22284;SDS011;11311;52.192;20.900;2023-04-25T17:37:37;10.63;;;8.55;;
22284;SDS011;11311;52.192;20.900;2023-04-25T17:40:07;9.68;;;7.78;;
22284;SDS011;11311;52.192;20.900;2023-04-25T17:42:38;9.80;;;7.13;;
22284;SDS011;11311;52.192;20.900;2023-04-25T17:45:09;11.57;;;8.38;;
22284;SDS011;11311;52.192;20.900;2023-04-25T17:47:39;9.55;;;8.55;;
22284;SDS011;11311;52.192;20.900;2023-04-25T17:50:08;10.88;;;9.55;;
22284;SDS011;11311;52.192;20.900;2023-04-25T17:52:38;12.80;;;9.60;;
22284;SDS011;11311;52.192;20.900;2023-04-25T17:55:07;15.85;;;10.82;;
22284;SDS011;11311;52.192;20.900;2023-04-25T17:57:37;13.50;;;10.20;;
22284;SDS011;11311;52.192;20.900;2023-04-25T18:00:07;13.15;;;11.43;;
22284;SDS011;11311;52.192;20.900;2023-04-25T18:02:39;16.15;;;12.43;;
22284;SDS011;11311;52.192;20.900;2023-04-25T18:05:08;12.93;;;11.02;;
22284;SDS011;11311;52.192;20.900;2023-04-25T18:07:37;11.65;;;9.73;;
22284;SDS011;11311;52.192;20.900;2023-04-25T18:10:06;12.60;;;11.45;;
22284;SDS011;11311;52.192;20.900;2023-04-25T18:12:38;11.55;;;10.35;;
22284;SDS011;11311;52.192;20.900;2023-04-25T18:15:09;12.10;;;10.10;;
22284;SDS011;11311;52.192;20.900;2023-04-25T18:17:38;10.82;;;9.82;;
22284;SDS011;11311;52.192;20.900;2023-04-25T18:20:08;11.73;;;10.52;;
22284;SDS011;11311;52.192;20.900;2023-04-25T18:22:39;13.77;;;11.18;;
22284;SDS011;11311;52.192;20.900;2023-04-25T18:25:09;13.02;;;10.90;;
22284;SDS011;11311;52.192;20.900;2023-04-25T18:30:10;11.52;;;10.43;;
22284;SDS011;11311;52.192;20.900;2023-04-25T18:32:40;14.18;;;10.82;;
22284;SDS011;11311;52.192;20.900;2023-04-25T18:35:09;14.95;;;11.07;;
22284;SDS011;11311;52.192;20.900;2023-04-25T18:37:38;11.80;;;10.40;;
22284;SDS011;11311;52.192;20.900;2023-04-25T18:40:08;12.45;;;9.80;;
22284;SDS011;11311;52.192;20.900;2023-04-25T18:42:40;13.65;;;10.23;;
22284;SDS011;11311;52.192;20.900;2023-04-25T18:45:11;12.93;;;10.85;;
22284;SDS011;11311;52.192;20.900;2023-04-25T18:47:39;14.15;;;10.05;;
22284;SDS011;11311;52.192;20.900;2023-04-25T18:50:09;12.88;;;11.13;;
22284;SDS011;11311;52.192;20.900;2023-04-25T18:52:38;14.30;;;11.13;;
22284;SDS011;11311;52.192;20.900;2023-04-25T18:55:08;15.40;;;11.77;;
22284;SDS011;11311;52.192;20.900;2023-04-25T18:57:37;20.98;;;12.27;;
22284;SDS011;11311;52.192;20.900;2023-04-25T19:00:07;14.40;;;12.77;;
22284;SDS011;11311;52.192;20.900;2023-04-25T19:02:38;19.58;;;13.50;;
22284;SDS011;11311;52.192;20.900;2023-04-25T19:05:08;17.15;;;14.07;;
22284;SDS011;11311;52.192;20.900;2023-04-25T19:07:37;16.27;;;14.45;;
22284;SDS011;11311;52.192;20.900;2023-04-25T19:10:07;16.50;;;14.57;;
22284;SDS011;11311;52.192;20.900;2023-04-25T19:12:36;18.20;;;14.35;;
22284;SDS011;11311;52.192;20.900;2023-04-25T19:15:05;15.20;;;13.60;;
22284;SDS011;11311;52.192;20.900;2023-04-25T19:17:36;16.20;;;14.32;;
22284;SDS011;11311;52.192;20.900;2023-04-25T19:20:07;17.95;;;14.63;;
22284;SDS011;11311;52.192;20.900;2023-04-25T19:22:37;17.17;;;13.73;;
22284;SDS011;11311;52.192;20.900;2023-04-25T19:25:06;17.25;;;14.90;;
22284;SDS011;11311;52.192;20.900;2023-04-25T19:27:37;16.90;;;14.02;;
22284;SDS011;11311;52.192;20.900;2023-04-25T19:30:07;16.65;;;13.73;;
22284;SDS011;11311;52.192;20.900;2023-04-25T19:32:37;19.30;;;14.25;;
22284;SDS011;11311;52.192;20.900;2023-04-25T19:35:08;20.65;;;15.95;;
22284;SDS011;11311;52.192;20.900;2023-04-25T19:37:37;16.80;;;15.00;;
22284;SDS011;11311;52.192;20.900;2023-04-25T19:40:13;17.05;;;15.20;;
22284;SDS011;11311;52.192;20.900;2023-04-25T19:42:42;16.85;;;14.98;;
22284;SDS011;11311;52.192;20.900;2023-04-25T19:45:11;18.75;;;15.73;;
22284;SDS011;11311;52.192;20.900;2023-04-25T19:47:40;17.33;;;15.52;;
22284;SDS011;11311;52.192;20.900;2023-04-25T19:50:11;17.70;;;15.15;;
22284;SDS011;11311;52.192;20.900;2023-04-25T19:52:40;18.38;;;16.48;;
22284;SDS011;11311;52.192;20.900;2023-04-25T19:55:09;21.60;;;14.80;;
22284;SDS011;11311;52.192;20.900;2023-04-25T19:57:38;17.02;;;15.23;;
22284;SDS011;11311;52.192;20.900;2023-04-25T20:00:08;20.90;;;16.70;;
22284;SDS011;11311;52.192;20.900;2023-04-25T20:02:39;17.00;;;15.27;;
22284;SDS011;11311;52.192;20.900;2023-04-25T20:05:08;17.33;;;15.63;;
22284;SDS011;11311;52.192;20.900;2023-04-25T20:07:39;17.33;;;15.55;;
22284;SDS011;11311;52.192;20.900;2023-04-25T20:10:08;18.67;;;16.65;;
22284;SDS011;11311;52.192;20.900;2023-04-25T20:12:40;18.90;;;16.10;;
22284;SDS011;11311;52.192;20.900;2023-04-25T20:15:09;19.35;;;16.17;;
22284;SDS011;11311;52.192;20.900;2023-04-25T20:17:38;25.58;;;16.10;;
22284;SDS011;11311;52.192;20.900;2023-04-25T20:20:09;17.30;;;15.48;;
22284;SDS011;11311;52.192;20.900;2023-04-25T20:22:40;19.17;;;15.20;;
22284;SDS011;11311;52.192;20.900;2023-04-25T20:25:09;20.08;;;15.40;;
22284;SDS011;11311;52.192;20.900;2023-04-25T20:27:39;20.40;;;16.02;;
22284;SDS011;11311;52.192;20.900;2023-04-25T20:30:08;16.70;;;15.05;;
22284;SDS011;11311;52.192;20.900;2023-04-25T20:32:39;17.60;;;15.75;;
22284;SDS011;11311;52.192;20.900;2023-04-25T20:35:08;19.02;;;15.43;;
22284;SDS011;11311;52.192;20.900;2023-04-25T20:37:39;18.13;;;14.82;;
22284;SDS011;11311;52.192;20.900;2023-04-25T20:40:08;18.13;;;14.75;;
22284;SDS011;11311;52.192;20.900;2023-04-25T20:42:38;16.00;;;14.07;;
22284;SDS011;11311;52.192;20.900;2023-04-25T20:45:07;17.42;;;15.63;;
22284;SDS011;11311;52.192;20.900;2023-04-25T20:47:39;17.70;;;15.77;;
22284;SDS011;11311;52.192;20.900;2023-04-25T20:50:09;20.38;;;18.08;;
22284;SDS011;11311;52.192;20.900;2023-04-25T20:52:39;20.85;;;17.75;;
22284;SDS011;11311;52.192;20.900;2023-04-25T20:55:09;19.95;;;17.85;;
22284;SDS011;11311;52.192;20.900;2023-04-25T20:57:39;23.92;;;19.23;;
22284;SDS011;11311;52.192;20.900;2023-04-25T21:00:08;25.35;;;18.75;;
22284;SDS011;11311;52.192;20.900;2023-04-25T21:02:44;23.15;;;19.02;;
22284;SDS011;11311;52.192;20.900;2023-04-25T21:05:14;25.67;;;19.45;;
22284;SDS011;11311;52.192;20.900;2023-04-25T21:07:43;27.25;;;20.48;;
22284;SDS011;11311;52.192;20.900;2023-04-25T21:10:13;21.80;;;19.50;;
22284;SDS011;11311;52.192;20.900;2023-04-25T21:12:42;20.67;;;18.52;;
22284;SDS011;11311;52.192;20.900;2023-04-25T21:15:15;27.25;;;21.58;;
22284;SDS011;11311;52.192;20.900;2023-04-25T21:17:46;22.10;;;19.75;;
22284;SDS011;11311;52.192;20.900;2023-04-25T21:20:16;24.20;;;19.40;;
22284;SDS011;11311;52.192;20.900;2023-04-25T21:22:48;24.95;;;20.73;;
22284;SDS011;11311;52.192;20.900;2023-04-25T21:25:22;26.27;;;20.63;;
22284;SDS011;11311;52.192;20.900;2023-04-25T21:27:57;22.08;;;19.42;;
22284;SDS011;11311;52.192;20.900;2023-04-25T21:30:28;25.85;;;20.83;;
22284;SDS011;11311;52.192;20.900;2023-04-25T21:32:57;26.02;;;21.77;;
22284;SDS011;11311;52.192;20.900;2023-04-25T21:35:26;23.90;;;21.48;;
22284;SDS011;11311;52.192;20.900;2023-04-25T21:37:56;24.95;;;22.08;;
22284;SDS011;11311;52.192;20.900;2023-04-25T21:40:25;27.50;;;22.75;;
22284;SDS011;11311;52.192;20.900;2023-04-25T21:42:54;32.05;;;22.98;;
22284;SDS011;11311;52.192;20.900;2023-04-25T21:45:23;26.30;;;22.58;;
22284;SDS011;11311;52.192;20.900;2023-04-25T21:47:52;27.48;;;23.30;;
22284;SDS011;11311;52.192;20.900;2023-04-25T21:50:21;28.10;;;25.17;;
22284;SDS011;11311;52.192;20.900;2023-04-25T21:52:50;28.23;;;23.92;;
22284;SDS011;11311;52.192;20.900;2023-04-25T21:55:21;31.33;;;25.50;;
22284;SDS011;11311;52.192;20.900;2023-04-25T21:57:50;30.30;;;24.83;;
22284;SDS011;11311;52.192;20.900;2023-04-25T22:00:19;30.30;;;25.35;;
22284;SDS011;11311;52.192;20.900;2023-04-25T22:02:51;24.15;;;21.65;;
22284;SDS011;11311;52.192;20.900;2023-04-25T22:07:52;26.00;;;21.30;;
22284;SDS011;11311;52.192;20.900;2023-04-25T22:10:24;27.27;;;21.48;;
22284;SDS011;11311;52.192;20.900;2023-04-25T22:15:22;18.13;;;15.32;;
22284;SDS011;11311;52.192;20.900;2023-04-25T22:17:51;18.13;;;15.93;;
22284;SDS011;11311;52.192;20.900;2023-04-25T22:20:21;20.55;;;16.27;;
22284;SDS011;11311;52.192;20.900;2023-04-25T22:22:52;19.10;;;16.25;;
22284;SDS011;11311;52.192;20.900;2023-04-25T22:25:24;16.60;;;14.80;;
22284;SDS011;11311;52.192;20.900;2023-04-25T22:27:53;16.17;;;13.85;;
22284;SDS011;11311;52.192;20.900;2023-04-25T22:32:51;18.00;;;12.57;;
22284;SDS011;11311;52.192;20.900;2023-04-25T22:35:21;18.42;;;13.43;;
22284;SDS011;11311;52.192;20.900;2023-04-25T22:37:50;18.02;;;11.98;;
22284;SDS011;11311;52.192;20.900;2023-04-25T22:40:19;13.55;;;10.85;;
22284;SDS011;11311;52.192;20.900;2023-04-25T22:42:49;18.90;;;12.02;;
22284;SDS011;11311;52.192;20.900;2023-04-25T22:45:18;16.15;;;10.82;;
22284;SDS011;11311;52.192;20.900;2023-04-25T22:47:47;16.92;;;10.63;;
22284;SDS011;11311;52.192;20.900;2023-04-25T22:50:16;15.52;;;10.15;;
22284;SDS011;11311;52.192;20.900;2023-04-25T22:52:45;17.67;;;10.90;;
22284;SDS011;11311;52.192;20.900;2023-04-25T22:55:15;17.20;;;11.18;;
22284;SDS011;11311;52.192;20.900;2023-04-25T22:57:44;14.55;;;11.82;;
22284;SDS011;11311;52.192;20.900;2023-04-25T23:00:14;17.15;;;11.55;;
22284;SDS011;11311;52.192;20.900;2023-04-25T23:02:46;18.63;;;12.05;;
22284;SDS011;11311;52.192;20.900;2023-04-25T23:05:16;14.23;;;11.30;;
22284;SDS011;11311;52.192;20.900;2023-04-25T23:07:45;11.93;;;10.75;;
22284;SDS011;11311;52.192;20.900;2023-04-25T23:10:14;15.38;;;11.43;;
22284;SDS011;11311;52.192;20.900;2023-04-25T23:12:44;11.98;;;10.77;;
22284;SDS011;11311;52.192;20.900;2023-04-25T23:15:15;14.73;;;10.63;;
22284;SDS011;11311;52.192;20.900;2023-04-25T23:17:44;15.05;;;11.07;;
22284;SDS011;11311;52.192;20.900;2023-04-25T23:20:13;13.32;;;9.27;;
22284;SDS011;11311;52.192;20.900;2023-04-25T23:22:42;14.43;;;8.15;;
22284;SDS011;11311;52.192;20.900;2023-04-25T23:25:11;18.08;;;7.45;;
22284;SDS011;11311;52.192;20.900;2023-04-25T23:27:40;12.73;;;8.10;;
22284;SDS011;11311;52.192;20.900;2023-04-25T23:30:09;13.30;;;8.88;;
22284;SDS011;11311;52.192;20.900;2023-04-25T23:32:40;13.45;;;8.85;;
22284;SDS011;11311;52.192;20.900;2023-04-25T23:35:09;14.10;;;6.75;;
22284;SDS011;11311;52.192;20.900;2023-04-25T23:37:38;13.52;;;6.75;;
22284;SDS011;11311;52.192;20.900;2023-04-25T23:40:07;13.07;;;7.97;;
22284;SDS011;11311;52.192;20.900;2023-04-25T23:42:38;13.77;;;6.97;;
22284;SDS011;11311;52.192;20.900;2023-04-25T23:45:08;12.38;;;7.43;;
22284;SDS011;11311;52.192;20.900;2023-04-25T23:47:41;12.90;;;6.63;;
22284;SDS011;11311;52.192;20.900;2023-04-25T23:50:11;18.65;;;7.53;;
22284;SDS011;11311;52.192;20.900;2023-04-25T23:52:39;12.02;;;6.88;;
22284;SDS011;11311;52.192;20.900;2023-04-25T23:55:08;14.55;;;7.55;;
22284;SDS011;11311;52.192;20.900;2023-04-25T23:57:37;15.77;;;7.03;;
